createdAt,value
2019-02-07T00:00:06.815Z,25.40
2019-02-07T00:02:33.903Z,21.17
2019-02-07T00:05:00.604Z,18.80
2019-02-07T00:07:27.403Z,20.43
2019-02-07T00:09:54.207Z,19.40
2019-02-07T00:12:20.907Z,18.97
2019-02-07T00:14:47.708Z,19.30
2019-02-07T00:17:14.405Z,22.53
2019-02-07T00:19:41.215Z,20.60
2019-02-07T00:22:08.873Z,22.40
2019-02-07T00:24:42.582Z,18.73
2019-02-07T00:27:04.494Z,19.93
2019-02-07T00:29:31.702Z,18.93
2019-02-07T00:31:58.515Z,19.73
2019-02-07T00:34:25.756Z,21.50
2019-02-07T00:36:52.560Z,19.27
2019-02-07T00:39:20.096Z,23.17
2019-02-07T00:41:46.799Z,18.93
2019-02-07T00:44:13.603Z,20.83
2019-02-07T00:46:40.418Z,20.47
2019-02-07T00:49:07.227Z,17.00
2019-02-07T00:51:33.943Z,18.63
2019-02-07T00:54:00.659Z,19.45
2019-02-07T00:56:27.451Z,20.23
2019-02-07T00:58:54.618Z,20.13
2019-02-07T01:01:21.317Z,20.77
2019-02-07T01:03:48.107Z,19.13
2019-02-07T01:06:15.011Z,21.43
2019-02-07T01:08:41.703Z,17.53
2019-02-07T01:11:08.511Z,17.73
2019-02-07T01:13:35.208Z,17.90
2019-02-07T01:16:02.788Z,20.33
2019-02-07T01:18:29.571Z,16.70
2019-02-07T01:20:56.413Z,17.67
2019-02-07T01:23:23.173Z,17.13
2019-02-07T01:25:49.868Z,18.73
2019-02-07T01:28:16.779Z,18.10
2019-02-07T01:30:43.579Z,17.37
2019-02-07T01:33:10.274Z,17.93
2019-02-07T01:35:37.184Z,19.47
2019-02-07T01:38:03.979Z,15.50
2019-02-07T01:40:30.783Z,16.90
2019-02-07T01:42:57.488Z,18.73
2019-02-07T01:45:24.613Z,14.83
2019-02-07T01:47:51.512Z,16.77
2019-02-07T01:50:19.973Z,16.97
2019-02-07T01:52:47.183Z,15.10
2019-02-07T01:55:14.679Z,14.77
2019-02-07T01:57:41.607Z,15.43
2019-02-07T02:00:11.359Z,14.80
2019-02-07T02:02:38.651Z,13.67
2019-02-07T02:05:05.887Z,12.37
2019-02-07T02:07:32.599Z,13.20
2019-02-07T02:10:00.012Z,13.13
2019-02-07T02:12:26.710Z,12.47
2019-02-07T02:14:53.418Z,13.10
2019-02-07T02:17:20.107Z,13.47
2019-02-07T02:19:46.912Z,11.40
2019-02-07T02:22:13.756Z,11.97
2019-02-07T02:24:40.655Z,13.27
2019-02-07T02:27:07.359Z,11.50
2019-02-07T02:29:34.460Z,10.50
2019-02-07T02:32:01.380Z,11.63
2019-02-07T02:34:28.071Z,10.80
2019-02-07T02:36:54.785Z,11.20
2019-02-07T02:39:21.567Z,9.45
2019-02-07T02:41:48.274Z,9.70
2019-02-07T02:44:15.073Z,9.40
2019-02-07T02:46:42.079Z,10.23
2019-02-07T02:49:09.483Z,8.43
2019-02-07T02:51:36.195Z,8.33
2019-02-07T02:54:04.287Z,8.27
2019-02-07T02:56:31.003Z,8.87
2019-02-07T02:58:57.895Z,8.70
2019-02-07T03:01:44.025Z,9.30
2019-02-07T03:04:29.039Z,8.27
2019-02-07T03:07:18.167Z,8.37
2019-02-07T03:10:02.294Z,7.33
2019-02-07T03:13:08.303Z,9.43
2019-02-07T03:15:54.641Z,8.87
2019-02-07T03:18:52.983Z,7.03
2019-02-07T03:21:39.376Z,7.63
2019-02-07T03:24:34.783Z,7.40
2019-02-07T03:27:19.947Z,8.30
2019-02-07T03:30:14.807Z,7.07
2019-02-07T03:33:13.932Z,8.17
2019-02-07T03:36:18.572Z,7.43
2019-02-07T03:39:03.653Z,7.57
2019-02-07T03:41:41.671Z,7.17
2019-02-07T03:44:26.789Z,8.50
2019-02-07T03:47:10.986Z,8.53
2019-02-07T03:49:44.815Z,7.30
2019-02-07T03:52:22.309Z,7.77
2019-02-07T03:55:11.463Z,7.90
2019-02-07T03:57:56.781Z,7.23
2019-02-07T04:00:43.855Z,6.05
2019-02-07T04:03:24.216Z,6.47
2019-02-07T04:06:09.070Z,6.40
2019-02-07T04:08:54.088Z,5.27
2019-02-07T04:11:39.838Z,6.33
2019-02-07T04:14:41.709Z,5.43
2019-02-07T04:17:28.756Z,5.40
2019-02-07T04:20:15.133Z,4.73
2019-02-07T04:22:49.949Z,5.50
2019-02-07T04:25:34.900Z,4.87
2019-02-07T04:28:09.249Z,4.10
2019-02-07T04:30:44.463Z,4.40
2019-02-07T04:33:29.411Z,4.73
2019-02-07T04:36:14.079Z,3.77
2019-02-07T04:38:51.629Z,3.93
2019-02-07T04:41:31.645Z,4.03
2019-02-07T04:44:23.471Z,3.53
2019-02-07T04:47:07.724Z,3.23
2019-02-07T04:49:54.594Z,3.17
2019-02-07T04:52:39.359Z,3.10
2019-02-07T04:55:28.817Z,3.00
2019-02-07T04:58:04.169Z,3.80
2019-02-07T05:00:48.368Z,2.97
2019-02-07T05:03:46.544Z,3.53
2019-02-07T05:06:23.432Z,2.50
2019-02-07T05:09:15.840Z,3.43
2019-02-07T05:11:58.175Z,3.10
2019-02-07T05:14:43.419Z,3.33
2019-02-07T05:17:29.645Z,2.53
2019-02-07T05:20:18.537Z,3.00
2019-02-07T05:23:00.802Z,2.73
2019-02-07T05:26:02.543Z,2.83
2019-02-07T05:28:42.215Z,3.33
2019-02-07T05:31:19.098Z,3.57
2019-02-07T05:34:02.073Z,3.30
2019-02-07T05:36:46.977Z,3.63
2019-02-07T05:39:39.397Z,3.10
2019-02-07T05:42:46.041Z,3.33
2019-02-07T05:45:31.995Z,3.60
2019-02-07T05:48:06.047Z,3.50
2019-02-07T05:50:40.931Z,3.63
2019-02-07T05:53:45.567Z,3.90
2019-02-07T05:56:32.780Z,3.53
2019-02-07T05:59:19.181Z,4.23
2019-02-07T06:01:52.860Z,3.17
2019-02-07T06:04:38.083Z,3.40
2019-02-07T06:07:23.278Z,3.60
2019-02-07T06:10:11.224Z,3.50
2019-02-07T06:13:06.675Z,5.10
2019-02-07T06:15:51.779Z,3.30
2019-02-07T06:18:28.003Z,3.23
2019-02-07T06:21:13.900Z,2.90
2019-02-07T06:23:56.511Z,3.20
2019-02-07T06:26:48.530Z,3.73
2019-02-07T06:29:53.013Z,3.87
2019-02-07T06:32:42.386Z,5.27
2019-02-07T06:35:27.511Z,4.73
2019-02-07T06:38:03.775Z,7.03
2019-02-07T06:40:41.888Z,5.93
2019-02-07T06:43:20.199Z,4.73
2019-02-07T06:45:59.535Z,3.23
2019-02-07T06:48:52.007Z,3.47
2019-02-07T06:51:45.032Z,2.70
2019-02-07T06:54:27.030Z,3.60
2019-02-07T06:57:12.087Z,3.13
2019-02-07T06:59:58.000Z,3.50
2019-02-07T07:02:35.480Z,3.63
2019-02-07T07:05:25.579Z,4.00
2019-02-07T07:08:02.603Z,3.70
2019-02-07T07:10:54.703Z,5.37
2019-02-07T07:13:37.814Z,3.40
2019-02-07T07:16:27.094Z,4.97
2019-02-07T07:19:31.801Z,7.20
2019-02-07T07:22:27.421Z,10.80
2019-02-07T07:25:14.959Z,9.53
2019-02-07T07:28:10.526Z,10.20
2019-02-07T07:31:05.983Z,15.40
2019-02-07T07:33:55.667Z,13.73
2019-02-07T07:36:51.089Z,15.77
2019-02-07T07:39:32.469Z,13.80
2019-02-07T07:42:17.513Z,21.63
2019-02-07T07:45:06.758Z,20.33
2019-02-07T07:48:11.620Z,16.33
2019-02-07T07:51:07.425Z,13.53
2019-02-07T07:54:03.035Z,21.40
2019-02-07T07:56:52.855Z,20.73
2019-02-07T07:59:41.406Z,20.67
2019-02-07T08:02:24.604Z,20.10
2019-02-07T08:05:01.531Z,21.43
2019-02-07T08:07:43.095Z,27.60
2019-02-07T09:27:40.163Z,28.33
2019-02-07T09:30:37.631Z,22.83
2019-02-07T09:33:27.811Z,27.23
2019-02-07T09:36:12.768Z,26.87
2019-02-07T09:39:25.091Z,23.67
2019-02-07T09:42:10.991Z,27.67
2019-02-07T09:44:53.303Z,23.10
2019-02-07T09:47:39.787Z,20.37
2019-02-07T09:50:29.683Z,18.40
2019-02-07T09:53:23.526Z,21.33
2019-02-07T09:56:04.123Z,22.80
2019-02-07T09:58:48.847Z,24.67
2019-02-07T10:01:22.675Z,29.75
2019-02-07T10:04:03.795Z,22.90
2019-02-07T10:06:54.572Z,23.65
2019-02-07T10:09:39.948Z,27.80
2019-02-07T10:12:29.783Z,24.40
2019-02-07T10:15:34.039Z,28.03
2019-02-07T10:18:19.069Z,29.83
2019-02-07T10:21:11.108Z,23.57
2019-02-07T10:23:57.742Z,25.60
2019-02-07T10:26:44.124Z,24.30
2019-02-07T10:29:37.743Z,22.70
2019-02-07T10:32:25.043Z,25.50
2019-02-07T10:34:58.656Z,22.47
2019-02-07T10:38:00.071Z,17.33
2019-02-07T10:40:46.604Z,25.17
2019-02-07T10:43:32.699Z,22.77
2019-02-07T10:46:24.955Z,26.63
2019-02-07T10:49:12.327Z,24.37
2019-02-07T10:54:32.090Z,22.13
2019-02-07T10:57:17.551Z,21.13
2019-02-07T11:00:16.300Z,25.50
2019-02-07T11:02:56.394Z,25.80
2019-02-07T11:05:41.822Z,19.30
2019-02-07T11:08:31.094Z,19.23
2019-02-07T11:11:15.695Z,16.03
2019-02-07T11:14:12.149Z,18.80
2019-02-07T11:16:47.287Z,15.97
2019-02-07T11:19:33.172Z,19.23
2019-02-07T11:22:38.404Z,17.87
2019-02-07T11:25:36.176Z,24.90
2019-02-07T11:28:21.952Z,22.47
2019-02-07T11:31:06.823Z,20.10
2019-02-07T11:33:46.516Z,16.50
2019-02-07T11:36:33.112Z,18.27
2019-02-07T11:39:18.546Z,18.13
2019-02-07T11:41:57.222Z,15.80
2019-02-07T11:44:50.698Z,15.10
2019-02-07T11:47:46.703Z,17.73
2019-02-07T11:50:29.891Z,17.17
2019-02-07T11:53:10.461Z,15.00
2019-02-07T11:55:56.859Z,16.70
2019-02-07T11:58:43.236Z,14.43
2019-02-07T12:01:22.391Z,11.67
2019-02-07T12:04:07.611Z,21.97
2019-02-07T12:06:50.319Z,14.93
2019-02-07T12:09:55.007Z,14.13
2019-02-07T12:12:44.439Z,16.37
2019-02-07T12:15:31.906Z,15.33
2019-02-07T12:18:24.144Z,17.53
2019-02-07T12:21:00.188Z,15.10
2019-02-07T12:23:40.555Z,11.97
2019-02-07T12:26:26.927Z,15.30
2019-02-07T12:29:02.288Z,14.60
2019-02-07T12:31:47.415Z,13.10
2019-02-07T12:34:41.714Z,18.00
2019-02-07T12:37:25.247Z,14.23
2019-02-07T12:40:14.376Z,14.00
2019-02-07T12:42:54.416Z,12.63
2019-02-07T12:45:46.916Z,14.40
2019-02-07T12:48:22.747Z,12.80
2019-02-07T12:51:06.180Z,14.40
2019-02-07T12:53:51.074Z,14.90
2019-02-07T12:56:36.436Z,13.00
2019-02-07T12:59:25.978Z,13.93
2019-02-07T13:02:09.178Z,12.53
2019-02-07T13:05:09.511Z,13.20
2019-02-07T13:08:14.971Z,11.03
2019-02-07T13:10:57.069Z,12.33
2019-02-07T13:13:41.751Z,14.13
2019-02-07T13:16:15.376Z,11.13
2019-02-07T13:18:51.407Z,16.03
2019-02-07T13:21:45.081Z,11.73
2019-02-07T13:24:37.551Z,11.20
2019-02-07T13:27:27.412Z,9.03
2019-02-07T13:30:19.224Z,9.70
2019-02-07T13:33:09.627Z,6.20
2019-02-07T13:35:49.273Z,9.87
2019-02-07T13:38:28.183Z,9.60
2019-02-07T13:41:06.851Z,7.33
2019-02-07T13:43:52.305Z,7.27
2019-02-07T13:46:42.781Z,6.67
2019-02-07T13:49:27.975Z,8.83
2019-02-07T13:52:29.455Z,10.63
2019-02-07T13:55:22.024Z,8.23
2019-02-07T13:58:07.363Z,11.37
2019-02-07T14:00:53.940Z,9.30
2019-02-07T14:03:34.712Z,8.57
2019-02-07T14:06:21.825Z,8.43
2019-02-07T14:09:13.859Z,8.93
2019-02-07T14:12:05.155Z,8.47
2019-02-07T14:14:57.683Z,8.53
2019-02-07T14:17:34.551Z,6.27
2019-02-07T14:20:14.754Z,7.13
2019-02-07T14:23:06.785Z,7.33
2019-02-07T14:25:52.047Z,7.43
2019-02-07T14:28:30.027Z,6.43
2019-02-07T14:31:14.939Z,9.80
2019-02-07T14:33:57.233Z,7.97
2019-02-07T14:36:45.590Z,6.17
2019-02-07T14:39:31.716Z,9.20
2019-02-07T14:42:04.463Z,5.77
2019-02-07T14:44:42.564Z,7.50
2019-02-07T14:47:09.367Z,6.07
2019-02-07T14:49:36.763Z,5.67
2019-02-07T14:52:03.871Z,7.63
2019-02-07T14:54:30.584Z,9.23
2019-02-07T14:56:57.295Z,9.00
2019-02-07T14:59:24.207Z,8.20
2019-02-07T15:01:51.165Z,8.70
2019-02-07T15:04:17.991Z,6.80
2019-02-07T15:06:44.805Z,9.33
2019-02-07T15:09:17.282Z,10.45
2019-02-07T15:11:44.286Z,9.30
2019-02-07T15:14:11.531Z,9.57
2019-02-07T15:16:38.430Z,8.20
2019-02-07T15:19:05.239Z,10.47
2019-02-07T15:21:31.951Z,7.60
2019-02-07T15:23:58.752Z,9.67
2019-02-07T15:26:25.856Z,9.37
2019-02-07T15:28:52.828Z,8.00
2019-02-07T15:31:19.543Z,9.20
2019-02-07T15:33:46.255Z,9.60
2019-02-07T15:36:13.223Z,10.60
2019-02-07T15:38:40.123Z,8.17
2019-02-07T15:41:07.426Z,8.90
2019-02-07T15:43:34.131Z,8.30
2019-02-07T15:46:01.749Z,10.50
2019-02-07T15:48:28.783Z,10.55
2019-02-07T15:50:55.674Z,11.03
2019-02-07T15:53:22.506Z,10.70
2019-02-07T15:55:49.215Z,8.00
2019-02-07T15:58:18.299Z,10.47
2019-02-07T16:00:52.663Z,9.23
2019-02-07T16:03:27.128Z,6.93
2019-02-07T16:05:53.935Z,8.03
2019-02-07T16:08:20.913Z,9.27
2019-02-07T16:10:47.871Z,9.53
2019-02-07T16:13:14.587Z,7.93
2019-02-07T16:15:41.390Z,9.30
2019-02-07T16:18:08.599Z,8.00
2019-02-07T16:20:35.323Z,8.63
2019-02-07T16:23:02.224Z,8.83
2019-02-07T16:25:29.144Z,11.83
2019-02-07T16:27:55.931Z,7.07
2019-02-07T16:30:25.039Z,10.17
2019-02-07T16:32:51.860Z,9.70
2019-02-07T16:35:19.959Z,9.43
2019-02-07T16:37:46.969Z,9.97
2019-02-07T16:40:15.639Z,9.10
2019-02-07T16:42:42.447Z,8.10
2019-02-07T16:45:11.880Z,11.37
2019-02-07T16:47:39.024Z,11.47
2019-02-07T16:50:08.155Z,10.13
2019-02-07T16:52:35.081Z,13.60
2019-02-07T16:55:01.894Z,11.90
2019-02-07T16:57:28.855Z,12.00
2019-02-07T16:59:55.672Z,12.83
2019-02-07T17:02:23.166Z,8.70
2019-02-07T17:04:49.881Z,10.10
2019-02-07T17:07:16.688Z,10.23
2019-02-07T17:09:44.031Z,10.87
2019-02-07T17:12:11.261Z,12.47
2019-02-07T17:14:38.152Z,6.57
2019-02-07T17:17:05.551Z,13.97
2019-02-07T17:19:32.491Z,5.63
2019-02-07T17:21:59.300Z,8.83
2019-02-07T17:24:26.208Z,7.00
2019-02-07T17:27:12.572Z,8.37
2019-02-07T17:29:39.377Z,10.97
2019-02-07T17:32:06.182Z,13.57
2019-02-07T17:34:32.900Z,8.80
2019-02-07T17:36:59.598Z,8.20
2019-02-07T17:39:26.360Z,10.00
2019-02-07T17:41:53.050Z,9.40
2019-02-07T17:44:20.976Z,9.63
2019-02-07T17:46:47.669Z,8.90
2019-02-07T17:49:14.364Z,7.47
2019-02-07T17:51:41.155Z,5.97
2019-02-07T17:54:18.263Z,11.33
2019-02-07T17:56:36.487Z,8.97
2019-02-07T17:59:06.206Z,6.40
2019-02-07T18:01:33.176Z,10.93
2019-02-07T18:04:00.069Z,10.83
2019-02-07T18:06:26.883Z,10.93
2019-02-07T18:08:53.796Z,10.20
2019-02-07T18:11:20.593Z,10.50
2019-02-07T18:13:47.414Z,7.77
2019-02-07T18:16:14.119Z,14.03
2019-02-07T18:18:40.907Z,11.03
2019-02-07T18:21:08.191Z,11.97
2019-02-07T18:23:34.895Z,10.47
2019-02-07T18:26:01.684Z,8.03
2019-02-07T18:28:28.372Z,9.17
2019-02-07T18:30:55.072Z,11.20
2019-02-07T18:33:21.760Z,9.87
2019-02-07T18:35:48.574Z,14.73
2019-02-07T18:38:15.274Z,13.27
2019-02-07T18:40:42.483Z,9.90
2019-02-07T18:43:09.188Z,9.80
2019-02-07T18:45:36.100Z,9.43
2019-02-07T18:48:03.110Z,6.90
2019-02-07T18:50:31.991Z,10.73
2019-02-07T18:52:58.787Z,10.80
2019-02-07T18:55:25.896Z,10.67
2019-02-07T18:57:52.799Z,9.53
2019-02-07T19:00:23.321Z,12.30
2019-02-07T19:02:50.748Z,9.27
2019-02-07T19:05:19.322Z,9.47
2019-02-07T19:07:46.557Z,12.10
2019-02-07T19:10:15.307Z,12.20
2019-02-07T19:12:42.010Z,8.70
2019-02-07T19:15:13.183Z,13.47
2019-02-07T19:17:40.002Z,10.30
2019-02-07T19:20:12.405Z,10.83
2019-02-07T19:22:38.501Z,13.93
2019-02-07T19:25:05.907Z,11.30
2019-02-07T19:27:32.621Z,9.13
2019-02-07T19:29:59.419Z,9.97
2019-02-07T19:32:26.227Z,9.83
2019-02-07T19:34:53.527Z,11.40
2019-02-07T19:37:20.249Z,10.23
2019-02-07T19:39:46.943Z,11.27
2019-02-07T19:42:13.723Z,13.23
2019-02-07T19:44:40.435Z,8.37
2019-02-07T19:47:07.235Z,12.77
2019-02-07T19:49:33.963Z,11.80
2019-02-07T19:52:07.938Z,10.27
2019-02-07T19:54:29.279Z,8.63
2019-02-07T19:56:55.991Z,9.63
2019-02-07T19:59:22.691Z,7.53
2019-02-07T20:01:49.407Z,14.87
2019-02-07T20:04:16.101Z,11.07
2019-02-07T20:06:42.920Z,7.80
2019-02-07T20:09:11.175Z,11.17
2019-02-07T20:11:37.880Z,10.33
2019-02-07T20:14:04.832Z,13.47
2019-02-07T20:16:31.660Z,9.53
2019-02-07T20:18:58.381Z,10.50
2019-02-07T20:21:25.187Z,12.27
2019-02-07T20:23:51.931Z,16.53
2019-02-07T20:26:18.631Z,9.63
2019-02-07T20:28:45.331Z,12.60
2019-02-07T20:31:12.250Z,8.90
2019-02-07T20:33:39.346Z,11.37
2019-02-07T20:36:06.565Z,12.07
2019-02-07T20:38:33.655Z,13.13
2019-02-07T20:41:00.355Z,11.43
2019-02-07T20:43:27.156Z,12.20
2019-02-07T20:45:53.880Z,13.07
2019-02-07T20:48:20.579Z,13.47
2019-02-07T20:50:47.292Z,10.13
2019-02-07T20:53:16.440Z,13.23
2019-02-07T20:55:43.835Z,13.05
2019-02-07T20:58:10.643Z,9.20
2019-02-07T21:00:37.587Z,13.30
2019-02-07T21:03:05.307Z,13.93
2019-02-07T21:05:32.623Z,11.20
2019-02-07T21:07:59.543Z,10.53
2019-02-07T21:10:27.391Z,10.37
2019-02-07T21:12:54.103Z,9.53
2019-02-07T21:15:22.219Z,12.63
2019-02-07T21:17:49.035Z,13.43
2019-02-07T21:20:17.962Z,10.77
2019-02-07T21:22:44.864Z,11.80
2019-02-07T21:25:14.467Z,11.77
2019-02-07T21:27:41.175Z,9.60
2019-02-07T21:30:17.351Z,7.27
2019-02-07T21:32:44.907Z,12.20
2019-02-07T21:35:13.991Z,9.90
2019-02-07T21:37:40.783Z,14.00
2019-02-07T21:40:09.446Z,9.30
2019-02-07T21:42:36.139Z,6.73
2019-02-07T21:45:04.495Z,9.17
2019-02-07T21:47:38.061Z,10.40
2019-02-07T21:50:07.583Z,13.57
2019-02-07T21:52:34.287Z,13.17
2019-02-07T21:55:01.007Z,7.50
2019-02-07T21:57:27.763Z,8.50
2019-02-07T22:00:00.686Z,11.33
2019-02-07T22:02:23.286Z,10.60
2019-02-07T22:04:49.979Z,9.57
2019-02-07T22:07:16.671Z,10.30
2019-02-07T22:09:43.682Z,13.17
2019-02-07T22:12:10.385Z,9.00
2019-02-07T22:14:37.231Z,10.10
2019-02-07T22:17:03.927Z,6.70
2019-02-07T22:19:30.888Z,8.00
2019-02-07T22:22:17.251Z,6.20
2019-02-07T22:24:43.951Z,9.33
2019-02-07T22:27:10.644Z,8.53
2019-02-07T22:29:37.343Z,8.60
2019-02-07T22:32:04.281Z,8.80
2019-02-07T22:34:30.986Z,9.77
2019-02-07T22:36:57.707Z,11.13
2019-02-07T22:39:24.418Z,12.97
2019-02-07T22:41:51.120Z,10.47
2019-02-07T22:44:18.007Z,9.37
2019-02-07T22:46:44.807Z,9.80
2019-02-07T22:49:11.615Z,5.37
2019-02-07T22:51:38.503Z,7.63
2019-02-07T22:54:05.398Z,10.87
2019-02-07T22:56:34.270Z,9.73
2019-02-07T22:59:01.176Z,7.40
2019-02-07T23:01:39.047Z,9.00
2019-02-07T23:04:07.151Z,6.93
2019-02-07T23:06:33.851Z,9.20
2019-02-07T23:09:00.758Z,9.60
2019-02-07T23:11:27.957Z,8.47
2019-02-07T23:13:54.873Z,10.70
2019-02-07T23:16:21.786Z,9.13
2019-02-07T23:18:48.681Z,8.13
2019-02-07T23:21:15.479Z,8.87
2019-02-07T23:23:42.305Z,10.87
2019-02-07T23:26:09.194Z,9.27
2019-02-07T23:28:36.115Z,10.90
2019-02-07T23:31:04.436Z,11.33
2019-02-07T23:33:31.127Z,8.23
2019-02-07T23:35:58.635Z,10.83
2019-02-07T23:38:25.320Z,6.83
2019-02-07T23:40:52.243Z,8.97
2019-02-07T23:43:20.055Z,6.83
2019-02-07T23:45:46.856Z,11.37
2019-02-07T23:48:13.548Z,6.97
2019-02-07T23:50:40.346Z,5.97
2019-02-07T23:53:14.282Z,9.53
2019-02-07T23:55:35.943Z,9.40
2019-02-07T23:58:03.178Z,7.77
